Terminal Aerodrome Forecast
Issued by NWS

Home | Current Version | Previous Version | Text Only | Print | Product List | Glossary On
Versions: 1 2 3 4 5 6 7 8 9 10 11 12 13 14 15 16 17
000
FTUS46 KPDT 280007 AAA
TAFYKM
TAF AMD
KYKM 280007Z 2800/2824 19010KT P6SM FEW200
      TEMPO 2800/2803 3SM FU BKN030
     FM280500 26006KT P6SM SCT200
     FM281900 21008KT P6SM SCT150 BKN200=

USA.gov is the U.S. government's official web portal to all federal, state and local government web resources and services.